Time;durP1;ratioP1;P1;durP2;ratioP2;P2;SDS_P1;SDS_P2;PMS_P1;PMS_P2;Temp;Humidity;BMP_temperature;BMP_pressure;BME280_temperature;BME280_humidity;BME280_pressure;Samples;Min_cycle;Max_cycle;Signal;HPM_P1;HPM_P2
2023/03/24 00:00:13;;;;;;;1999.90;999.90;;;13.80;99.90;;;;;;4901490;29;20052;-89
2023/03/24 00:02:41;;;;;;;1945.25;537.72;;;13.60;99.90;;;;;;4915509;29;20080;-90
2023/03/24 00:05:12;;;;;;;1999.90;516.60;;;13.50;99.90;;;;;;4900289;29;20053;-90
2023/03/24 00:07:38;;;;;;;1999.90;999.90;;;13.80;99.90;;;;;;4907863;29;20527;-91
2023/03/24 00:10:10;;;;;;;1999.90;779.95;;;13.70;99.90;;;;;;4917020;29;20048;-90
2023/03/24 00:12:37;;;;;;;1999.90;999.90;;;13.70;99.90;;;;;;4917118;29;20044;-90
2023/03/24 00:15:05;;;;;;;1999.90;547.50;;;13.80;99.90;;;;;;4902631;29;20086;-88
2023/03/24 00:17:30;;;;;;;;;;;13.60;99.90;;;;;;4900382;29;20622;-90
2023/03/24 00:19:56;;;;;;;1999.90;999.90;;;14.10;99.90;;;;;;4917473;29;19933;-90
2023/03/24 00:22:22;;;;;;;1999.90;261.00;;;13.60;99.90;;;;;;4914507;29;20409;-89
2023/03/24 00:24:48;;;;;;;1999.90;999.90;;;14.20;99.90;;;;;;4919075;29;20044;-90
2023/03/24 00:27:16;;;;;;;1999.90;999.90;;;13.60;99.90;;;;;;4901150;29;20541;-89
2023/03/24 00:29:42;;;;;;;;;;;13.60;99.90;;;;;;4917802;29;20048;-91
2023/03/24 00:32:08;;;;;;;1973.32;771.38;;;14.20;99.90;;;;;;4912791;29;19951;-90
2023/03/24 00:34:37;;;;;;;1999.90;999.90;;;14.10;99.90;;;;;;4885050;29;20066;-91
2023/03/24 00:37:05;;;;;;;1999.90;999.90;;;14.20;99.90;;;;;;4915439;29;20626;-91
2023/03/24 00:39:31;;;;;;;1999.90;999.90;;;13.80;99.90;;;;;;4916245;29;20123;-90
2023/03/24 00:42:00;;;;;;;1999.90;706.45;;;13.70;99.90;;;;;;4901456;29;20090;-89
2023/03/24 00:44:26;;;;;;;1999.90;185.43;;;14.40;99.90;;;;;;4900485;29;20127;-90
2023/03/24 00:46:55;;;;;;;1999.90;235.98;;;14.50;99.90;;;;;;4916309;29;20044;-91
2023/03/24 00:49:40;;;;;;;1999.90;999.90;;;14.40;99.90;;;;;;4916545;29;20083;-90
2023/03/24 00:52:12;;;;;;;1999.90;417.58;;;13.70;99.90;;;;;;4901674;29;20617;-91
2023/03/24 00:54:39;;;;;;;1975.50;548.83;;;13.80;99.90;;;;;;4914951;29;20401;-90
2023/03/24 00:57:06;;;;;;;1999.90;367.38;;;13.70;99.90;;;;;;4898501;29;20048;-89
2023/03/24 00:59:36;;;;;;;1999.90;999.90;;;14.40;99.90;;;;;;4916000;29;20181;-90
2023/03/24 01:02:03;;;;;;;1999.90;169.02;;;14.40;99.90;;;;;;4913381;29;20436;-88
2023/03/24 01:04:29;;;;;;;1999.90;999.90;;;13.80;99.90;;;;;;4912801;29;20051;-89
2023/03/24 01:06:57;;;;;;;1999.90;999.90;;;14.40;99.90;;;;;;4916962;29;20296;-90
2023/03/24 01:09:23;;;;;;;1999.90;470.30;;;14.40;99.90;;;;;;4915262;29;20044;-88
2023/03/24 01:11:50;;;;;;;1999.90;999.90;;;13.80;99.90;;;;;;4915838;29;20091;-88
2023/03/24 01:14:15;;;;;;;1916.37;385.07;;;14.40;99.90;;;;;;4916474;29;20186;-90
2023/03/24 01:16:42;;;;;;;1714.65;758.33;;;13.70;99.90;;;;;;4915193;29;20504;-88
2023/03/24 01:19:08;;;;;;;1999.90;344.38;;;13.80;99.90;;;;;;4917167;29;20398;-87
2023/03/24 01:21:35;;;;;;;1999.90;999.90;;;14.30;99.90;;;;;;4916264;29;20113;-88
2023/03/24 01:24:04;;;;;;;1726.88;756.95;;;13.90;99.90;;;;;;4915168;29;20492;-88
2023/03/24 01:26:30;;;;;;;1999.90;999.90;;;15.50;99.90;;;;;;4913945;29;20056;-88
2023/03/24 01:28:56;;;;;;;1999.90;999.90;;;14.10;99.90;;;;;;4914882;29;20052;-88
2023/03/24 01:31:22;;;;;;;1640.10;539.60;;;14.00;99.90;;;;;;4916762;29;20127;-88
2023/03/24 01:33:48;;;;;;;1999.90;999.90;;;14.40;99.90;;;;;;4914982;29;20083;-89
2023/03/24 01:36:13;;;;;;;1999.90;999.90;;;14.20;99.90;;;;;;4884670;29;20052;-88
2023/03/24 01:38:39;;;;;;;1999.90;616.35;;;14.40;99.90;;;;;;4917036;29;20091;-88
2023/03/24 01:41:06;;;;;;;1999.90;440.48;;;14.20;99.90;;;;;;4899978;29;20115;-87
2023/03/24 01:43:34;;;;;;;1999.90;999.90;;;14.40;99.90;;;;;;4914062;29;20049;-88
2023/03/24 01:46:18;;;;;;;1828.75;541.65;;;14.40;99.90;;;;;;4914329;29;20047;-87
2023/03/24 01:48:55;;;;;;;1999.90;392.75;;;17.10;99.90;;;;;;4917102;29;20120;-87
2023/03/24 01:51:26;;;;;;;1999.90;999.90;;;14.30;99.90;;;;;;4917196;29;20127;-88
2023/03/24 01:53:58;;;;;;;1696.35;757.35;;;14.40;99.90;;;;;;4915445;29;20052;-87
2023/03/24 01:56:25;;;;;;;1999.90;999.90;;;14.00;99.90;;;;;;4899323;29;20048;-88
2023/03/24 01:58:57;;;;;;;1967.07;312.98;;;14.30;99.90;;;;;;4884642;29;20107;-88
2023/03/24 02:01:25;;;;;;;1999.90;999.90;;;14.50;99.90;;;;;;4898904;29;20051;-86
2023/03/24 02:03:51;;;;;;;1999.90;999.90;;;14.10;99.90;;;;;;4897823;29;20131;-89
2023/03/24 02:06:18;;;;;;;1999.90;999.90;;;14.20;99.90;;;;;;4915856;29;20493;-88
2023/03/24 02:08:56;;;;;;;1999.90;999.90;;;14.50;99.90;;;;;;4911058;29;20052;-88
2023/03/24 02:11:25;;;;;;;1999.90;999.90;;;14.50;99.90;;;;;;4911685;29;20052;-88
2023/03/24 02:13:51;;;;;;;1999.90;537.17;;;14.40;99.90;;;;;;4916585;29;20284;-88
2023/03/24 02:16:37;;;;;;;1749.82;757.60;;;14.50;99.90;;;;;;4914566;29;20111;-88
2023/03/24 02:19:37;;;;;;;1731.15;150.88;;;14.50;99.90;;;;;;4918166;29;20052;-86
2023/03/24 02:22:28;;;;;;;1741.90;539.15;;;14.60;99.90;;;;;;4866539;29;20509;-87
2023/03/24 02:25:26;;;;;;;1754.35;762.47;;;14.60;99.90;;;;;;4915497;29;20481;-87
2023/03/24 02:28:04;;;;;;;1999.90;999.90;;;14.60;99.90;;;;;;4894218;29;20106;-87
2023/03/24 02:30:44;;;;;;;1999.90;999.90;;;14.60;99.90;;;;;;4916755;29;20091;-88
2023/03/24 02:33:37;;;;;;;1999.90;999.90;;;14.10;99.90;;;;;;4913043;29;20095;-88
2023/03/24 02:36:22;;;;;;;1999.90;999.90;;;14.30;99.90;;;;;;4916600;29;20120;-87
2023/03/24 02:39:25;;;;;;;1999.90;999.90;;;14.70;99.90;;;;;;4929789;29;20088;-89
2023/03/24 02:42:13;;;;;;;1824.55;536.67;;;14.50;99.90;;;;;;4908045;29;20048;-89
2023/03/24 02:44:42;;;;;;;1999.90;794.38;;;14.20;99.90;;;;;;4894504;29;20130;-87
2023/03/24 02:47:29;;;;;;;1999.90;999.90;;;14.70;99.90;;;;;;4907937;29;20393;-88
2023/03/24 02:50:32;;;;;;;1999.90;999.90;;;14.30;99.90;;;;;;4909012;29;20516;-88
2023/03/24 02:53:19;;;;;;;1999.90;999.90;;;14.60;99.90;;;;;;4909897;29;20075;-89
2023/03/24 02:55:55;;;;;;;1999.90;999.90;;;14.60;99.90;;;;;;4907362;29;20059;-89
2023/03/24 02:58:31;;;;;;;1999.90;831.70;;;14.20;99.90;;;;;;4908339;29;20047;-88
2023/03/24 03:01:52;;;;;;;1999.90;999.90;;;14.60;99.90;;;;;;4892391;29;20477;-89
2023/03/24 03:04:24;;;;;;;1999.90;999.90;;;14.20;99.90;;;;;;4923777;29;20138;-89
2023/03/24 03:06:55;;;;;;;1999.90;999.90;;;14.40;99.90;;;;;;4924721;29;20036;-87
2023/03/24 03:09:22;;;;;;;1999.90;999.90;;;14.60;99.90;;;;;;4907784;29;20048;-89
2023/03/24 03:11:52;;;;;;;1999.90;999.90;;;14.30;99.90;;;;;;4891892;29;20070;-89
2023/03/24 03:14:36;;;;;;;1999.90;999.90;;;14.70;99.90;;;;;;4909616;29;20055;-88
2023/03/24 03:17:34;;;;;;;1999.90;461.58;;;14.30;99.90;;;;;;4907037;29;20405;-87
2023/03/24 03:20:09;;;;;;;873.28;52.10;;;14.60;99.90;;;;;;4903500;29;20416;-87
2023/03/24 03:22:48;;;;;;;1999.90;999.90;;;14.60;99.90;;;;;;4904121;29;20048;-88
2023/03/24 03:25:15;;;;;;;;;;;14.80;99.90;;;;;;4908693;29;20056;-87
2023/03/24 03:27:45;;;;;;;1999.90;414.52;;;14.80;99.90;;;;;;4908657;29;19982;-85
2023/03/24 03:30:26;;;;;;;1999.90;999.90;;;14.30;99.90;;;;;;4907571;29;20087;-87
2023/03/24 03:32:59;;;;;;;1702.57;757.55;;;14.80;99.90;;;;;;4908837;29;20087;-88
2023/03/24 03:35:50;;;;;;;1999.90;599.00;;;14.90;99.90;;;;;;4906276;29;20056;-86
2023/03/24 03:38:43;;;;;;;1816.47;119.22;;;14.70;99.90;;;;;;4908598;29;20052;-88
2023/03/24 03:41:09;;;;;;;1999.90;184.05;;;14.90;99.90;;;;;;4892099;29;20138;-87
2023/03/24 03:43:35;;;;;;;1999.90;999.90;;;14.90;99.90;;;;;;4911043;29;20526;-90
2023/03/24 03:46:05;;;;;;;1999.90;999.90;;;14.80;99.90;;;;;;4907425;29;20071;-88
2023/03/24 03:48:31;;;;;;;1993.95;596.78;;;14.60;99.90;;;;;;4909997;29;20498;-86
2023/03/24 03:50:57;;;;;;;1703.50;589.50;;;14.60;99.90;;;;;;4907250;29;20052;-88
2023/03/24 03:53:29;;;;;;;1999.90;999.90;;;14.00;99.90;;;;;;4878020;29;20137;-89
2023/03/24 03:55:55;;;;;;;1999.90;999.90;;;13.90;99.90;;;;;;4916096;29;20308;-88
2023/03/24 03:58:22;;;;;;;1999.90;999.90;;;14.30;99.90;;;;;;4933874;29;20055;-88
2023/03/24 04:00:48;;;;;;;1999.90;999.90;;;14.10;99.90;;;;;;4920494;29;20075;-87
2023/03/24 04:03:40;;;;;;;1999.90;999.90;;;14.00;99.90;;;;;;4914970;29;20064;-88
2023/03/24 04:06:16;;;;;;;1999.90;999.90;;;13.80;99.90;;;;;;4914347;29;20159;-87
2023/03/24 04:08:49;;;;;;;1999.90;999.90;;;14.00;99.90;;;;;;4917235;29;20058;-88
2023/03/24 04:11:37;;;;;;;1999.90;999.90;;;13.80;99.90;;;;;;4914397;29;20130;-87
2023/03/24 04:14:33;;;;;;;1999.90;999.90;;;13.90;99.90;;;;;;4900085;29;20072;-88
2023/03/24 04:17:17;;;;;;;1999.90;999.90;;;13.70;99.90;;;;;;4909929;29;20055;-89
2023/03/24 04:19:48;;;;;;;1999.90;999.90;;;13.80;99.90;;;;;;4899268;29;20088;-89
2023/03/24 04:22:37;;;;;;;1999.90;999.90;;;13.70;99.90;;;;;;4916494;29;20090;-88
2023/03/24 04:25:11;;;;;;;1999.90;999.90;;;13.30;99.90;;;;;;4899305;29;20688;-89
2023/03/24 04:28:01;;;;;;;1999.90;999.90;;;13.40;99.90;;;;;;4929811;29;20489;-89
2023/03/24 04:30:36;;;;;;;1999.90;519.50;;;13.30;99.90;;;;;;4910106;29;20408;-88
2023/03/24 04:33:16;;;;;;;1999.90;999.90;;;13.50;99.90;;;;;;4916598;29;20060;-88
2023/03/24 04:36:17;;;;;;;1999.90;999.90;;;13.30;99.90;;;;;;4916801;29;20091;-88
2023/03/24 04:38:52;;;;;;;1999.90;999.90;;;13.30;99.90;;;;;;4915571;29;20055;-87
2023/03/24 04:41:20;;;;;;;1999.90;407.00;;;13.40;99.90;;;;;;4915167;29;20055;-88
2023/03/24 04:43:47;;;;;;;1999.90;999.90;;;13.20;99.90;;;;;;4917841;29;20444;-87
2023/03/24 04:46:16;;;;;;;1999.90;999.90;;;12.90;99.90;;;;;;4883218;29;20095;-88
2023/03/24 04:48:43;;;;;;;1999.90;999.90;;;13.20;99.90;;;;;;4901933;29;20088;-86
2023/03/24 04:51:13;;;;;;;1999.90;999.90;;;12.80;99.90;;;;;;4916948;29;20123;-87
2023/03/24 04:53:38;;;;;;;1999.90;286.15;;;13.20;99.90;;;;;;4917223;29;20473;-87
2023/03/24 04:56:26;;;;;;;1999.90;999.90;;;12.60;99.90;;;;;;4915124;29;20036;-86
2023/03/24 04:58:52;;;;;;;1999.90;429.88;;;12.70;99.90;;;;;;4908548;29;20056;-87
2023/03/24 05:01:20;;;;;;;1999.90;689.72;;;13.00;99.90;;;;;;4913526;29;20394;-86
2023/03/24 05:03:46;;;;;;;1999.90;999.90;;;13.00;99.90;;;;;;4909748;29;20044;-87
2023/03/24 05:06:12;;;;;;;1999.90;823.63;;;12.70;99.90;;;;;;4910056;29;20048;-88
2023/03/24 05:08:39;;;;;;;1999.90;999.90;;;12.90;99.90;;;;;;4915902;29;20048;-89
2023/03/24 05:11:05;;;;;;;1999.90;999.90;;;13.10;99.90;;;;;;4914732;29;20087;-88
2023/03/24 05:13:31;;;;;;;1999.90;999.90;;;12.40;99.90;;;;;;4917010;29;20048;-88
2023/03/24 05:15:57;;;;;;;1999.90;651.70;;;12.90;99.90;;;;;;4895846;29;20044;-89
2023/03/24 05:18:23;;;;;;;1999.90;613.65;;;12.50;99.90;;;;;;4916446;29;20043;-89
2023/03/24 05:20:49;;;;;;;1999.90;999.90;;;12.70;99.90;;;;;;4899208;29;20401;-89
2023/03/24 05:23:15;;;;;;;1999.90;399.60;;;12.80;99.90;;;;;;4898144;29;20055;-89
2023/03/24 05:25:41;;;;;;;1999.90;999.90;;;12.60;99.90;;;;;;4900626;29;20064;-90
2023/03/24 05:28:07;;;;;;;1999.90;261.70;;;12.70;99.90;;;;;;4910446;29;20044;-91
2023/03/24 05:30:33;;;;;;;1999.90;754.75;;;12.60;99.90;;;;;;4912585;29;20071;-84
2023/03/24 05:32:58;;;;;;;1999.90;610.70;;;12.80;99.90;;;;;;4899562;29;20044;-83
2023/03/24 05:35:24;;;;;;;1999.90;999.90;;;12.60;99.90;;;;;;4914511;29;20052;-84
2023/03/24 05:37:50;;;;;;;1999.90;999.90;;;12.60;99.90;;;;;;4893925;29;20044;-84
2023/03/24 05:40:16;;;;;;;1999.90;554.88;;;12.60;99.90;;;;;;4904485;29;20765;-83
2023/03/24 05:42:42;;;;;;;1999.90;999.90;;;12.50;99.90;;;;;;4895042;29;20044;-83
2023/03/24 05:45:10;;;;;;;1999.90;999.90;;;12.50;99.90;;;;;;4907096;29;20104;-83
2023/03/24 05:47:36;;;;;;;1999.90;577.83;;;12.80;99.90;;;;;;4911351;29;20059;-83
2023/03/24 05:50:03;;;;;;;1999.90;853.75;;;12.80;99.90;;;;;;4888687;29;20442;-86
2023/03/24 05:52:30;;;;;;;1999.90;562.30;;;12.60;99.90;;;;;;4908431;29;20048;-82
2023/03/24 05:54:57;;;;;;;1999.90;646.80;;;12.60;99.90;;;;;;4912618;29;20082;-82
2023/03/24 05:57:23;;;;;;;1999.90;661.67;;;12.40;99.90;;;;;;4909537;29;20056;-83
2023/03/24 05:59:48;;;;;;;1999.90;629.80;;;12.80;99.90;;;;;;4908575;29;20040;-84
2023/03/24 06:02:14;;;;;;;1999.90;999.90;;;13.30;99.90;;;;;;4888629;29;20052;-84
2023/03/24 06:04:44;;;;;;;1999.90;999.90;;;12.30;99.90;;;;;;4909055;29;20045;-83
2023/03/24 06:07:11;;;;;;;1999.90;385.00;;;12.50;99.90;;;;;;4908988;29;20044;-82
2023/03/24 06:09:41;;;;;;;1999.90;999.90;;;12.70;99.90;;;;;;4908475;29;20477;-81
2023/03/24 06:12:07;;;;;;;1999.90;999.90;;;13.40;99.90;;;;;;4875732;29;20055;-81
2023/03/24 06:14:33;;;;;;;1999.90;999.90;;;12.40;99.90;;;;;;4906947;29;20125;-81
2023/03/24 06:16:59;;;;;;;1999.90;999.90;;;12.70;99.90;;;;;;4910221;29;20136;-81
2023/03/24 06:19:26;;;;;;;1999.90;999.90;;;12.60;99.90;;;;;;4908841;29;20052;-83
2023/03/24 06:21:53;;;;;;;1999.90;999.90;;;13.10;99.90;;;;;;4906499;29;20048;-81
2023/03/24 06:24:20;;;;;;;1999.90;999.90;;;12.60;99.90;;;;;;4910709;29;20044;-80
2023/03/24 06:26:48;;;;;;;1999.90;999.90;;;12.30;99.90;;;;;;4904937;29;21158;-83
2023/03/24 06:29:18;;;;;;;1999.90;999.90;;;12.70;99.90;;;;;;4902257;29;20056;-80
2023/03/24 06:31:45;;;;;;;1999.90;999.90;;;12.80;99.90;;;;;;4903516;29;20048;-80
2023/03/24 06:34:11;;;;;;;1999.90;866.30;;;12.40;99.90;;;;;;4890415;29;20082;-80
2023/03/24 06:36:37;;;;;;;1999.90;140.82;;;12.50;99.90;;;;;;4908062;29;20040;-80
2023/03/24 06:39:04;;;;;;;1999.90;999.90;;;12.50;99.90;;;;;;4909192;29;20051;-80
2023/03/24 06:41:31;;;;;;;1999.90;999.90;;;12.40;99.90;;;;;;4905094;29;20465;-81
2023/03/24 06:43:57;;;;;;;1999.90;999.90;;;12.70;99.90;;;;;;4908957;29;20054;-80
2023/03/24 06:46:23;;;;;;;1999.90;801.33;;;12.50;99.90;;;;;;4909746;29;20127;-81
2023/03/24 06:48:49;;;;;;;1999.90;795.30;;;12.40;99.90;;;;;;4908144;29;20184;-82
2023/03/24 06:51:15;;;;;;;1999.90;683.40;;;13.70;99.90;;;;;;4907114;29;20052;-82
2023/03/24 06:53:44;;;;;;;1999.90;999.90;;;12.50;99.90;;;;;;4911441;29;20075;-82
2023/03/24 06:56:15;;;;;;;1999.90;258.13;;;11.20;99.90;;;;;;4907823;29;20087;-81
2023/03/24 06:58:41;;;;;;;1999.90;999.90;;;12.80;99.90;;;;;;4908712;29;20406;-82
2023/03/24 07:01:07;;;;;;;1999.90;999.90;;;12.60;99.90;;;;;;4891084;29;20504;-81
2023/03/24 07:03:33;;;;;;;1999.90;221.15;;;13.00;99.90;;;;;;4878372;29;20044;-80
2023/03/24 07:05:59;;;;;;;1999.90;356.67;;;12.50;99.90;;;;;;4893640;29;20051;-82
2023/03/24 07:08:25;;;;;;;1999.90;999.90;;;12.40;99.90;;;;;;4914856;29;20397;-82
2023/03/24 07:10:51;;;;;;;1999.90;999.90;;;12.60;99.90;;;;;;4908394;29;20052;-81
2023/03/24 07:13:16;;;;;;;1999.90;575.63;;;12.50;99.90;;;;;;4910982;29;20130;-82
2023/03/24 07:15:42;;;;;;;1999.90;789.13;;;12.80;99.90;;;;;;4915668;29;20060;-85
2023/03/24 07:18:08;;;;;;;1999.90;412.75;;;12.60;99.90;;;;;;4912263;29;20434;-81
2023/03/24 07:20:33;;;;;;;1999.90;999.90;;;12.70;99.90;;;;;;4913170;29;20172;-82
2023/03/24 07:22:59;;;;;;;1999.90;142.43;;;13.10;99.90;;;;;;4913867;29;20072;-80
2023/03/24 07:25:25;;;;;;;1999.90;589.67;;;12.60;99.90;;;;;;4896833;29;20217;-81
2023/03/24 07:27:55;;;;;;;1999.90;833.55;;;12.60;99.90;;;;;;4905137;29;20043;-81
2023/03/24 07:30:21;;;;;;;1999.90;999.90;;;13.10;99.90;;;;;;4914550;29;20119;-82
2023/03/24 07:32:48;;;;;;;1999.90;619.33;;;12.70;99.90;;;;;;4913031;29;20059;-81
2023/03/24 07:35:15;;;;;;;1999.90;837.08;;;13.00;99.90;;;;;;4915541;29;20197;-89
2023/03/24 07:37:42;;;;;;;1999.90;384.33;;;13.00;99.90;;;;;;4914104;29;20095;-81
2023/03/24 07:40:12;;;;;;;1999.90;284.58;;;12.90;99.90;;;;;;4913269;29;20261;-82
2023/03/24 07:42:38;;;;;;;1999.90;400.27;;;12.60;99.90;;;;;;4913155;29;20560;-81
2023/03/24 07:45:07;;;;;;;1999.90;999.90;;;13.30;99.90;;;;;;4884882;29;20489;-80
2023/03/24 07:47:33;;;;;;;1999.90;999.90;;;12.90;99.90;;;;;;4907378;29;20067;-83
2023/03/24 07:49:59;;;;;;;1999.90;619.75;;;12.80;99.90;;;;;;4914135;29;20074;-82
2023/03/24 07:52:25;;;;;;;1999.90;999.90;;;13.00;99.90;;;;;;4912502;29;20725;-84
2023/03/24 07:54:50;;;;;;;1999.90;609.70;;;13.10;99.90;;;;;;4914192;29;20103;-82
2023/03/24 07:57:16;;;;;;;1999.90;999.90;;;12.80;99.90;;;;;;4915019;29;20056;-88
2023/03/24 07:59:42;;;;;;;1999.90;999.90;;;13.30;99.90;;;;;;4914493;29;20052;-84
2023/03/24 08:02:18;;;;;;;1999.90;668.03;;;13.00;99.90;;;;;;4898118;29;20056;-85
2023/03/24 08:04:45;;;;;;;1999.90;618.45;;;13.30;99.90;;;;;;4914087;29;20059;-82
2023/03/24 08:07:12;;;;;;;1999.90;999.90;;;13.20;99.90;;;;;;4916130;29;20115;-83
2023/03/24 08:09:39;;;;;;;1999.90;822.40;;;12.90;99.90;;;;;;4915970;29;20056;-85
2023/03/24 08:12:05;;;;;;;1999.90;999.90;;;13.20;99.90;;;;;;4912733;29;20473;-89
2023/03/24 08:14:31;;;;;;;1999.90;999.90;;;13.30;99.90;;;;;;4918038;29;20095;-82
2023/03/24 08:16:57;;;;;;;1999.90;837.53;;;13.40;99.90;;;;;;4915436;29;20052;-82
2023/03/24 08:19:22;;;;;;;1999.90;456.35;;;13.20;99.90;;;;;;4916491;29;20083;-81
2023/03/24 08:21:48;;;;;;;1999.90;999.90;;;13.20;99.90;;;;;;4914199;29;20153;-82
2023/03/24 08:24:14;;;;;;;1999.90;999.90;;;13.50;99.90;;;;;;4901197;29;20052;-83
2023/03/24 08:26:41;;;;;;;1999.90;730.38;;;13.10;99.90;;;;;;4913963;29;20144;-83
2023/03/24 08:29:07;;;;;;;1999.90;999.90;;;13.80;99.90;;;;;;4916716;29;20505;-82
2023/03/24 08:31:35;;;;;;;1999.90;405.10;;;13.30;99.90;;;;;;4914877;29;20044;-83
2023/03/24 08:34:01;;;;;;;;;;;13.40;99.90;;;;;;4918161;29;20052;-82
2023/03/24 08:36:27;;;;;;;1999.90;413.63;;;13.40;99.90;;;;;;4917119;29;19979;-83
2023/03/24 08:38:54;;;;;;;1999.90;527.08;;;13.00;99.90;;;;;;4915337;29;20052;-83
2023/03/24 08:41:21;;;;;;;1999.90;444.02;;;13.80;99.90;;;;;;4894612;29;20051;-83
2023/03/24 08:43:47;;;;;;;1999.90;432.33;;;14.30;99.90;;;;;;4901241;29;20107;-84
2023/03/24 08:46:14;;;;;;;1957.65;554.42;;;14.30;99.90;;;;;;4901707;29;20052;-84
2023/03/24 08:48:40;;;;;;;1999.90;999.90;;;14.30;99.90;;;;;;4916431;29;20129;-84
2023/03/24 08:51:13;;;;;;;1999.90;584.35;;;14.90;99.90;;;;;;4912866;29;20712;-83
2023/03/24 08:53:39;;;;;;;1999.90;999.90;;;14.10;99.90;;;;;;4912872;29;20066;-84
2023/03/24 08:56:05;;;;;;;1999.90;999.90;;;12.30;99.90;;;;;;4916187;29;20052;-85
2023/03/24 08:58:31;;;;;;;1999.90;999.90;;;14.00;99.90;;;;;;4912839;29;20048;-86
2023/03/24 09:00:57;;;;;;;1999.90;999.90;;;15.00;99.90;;;;;;4915725;29;20132;-86
2023/03/24 09:03:23;;;;;;;1999.90;999.90;;;14.70;99.90;;;;;;4913051;29;20058;-88
2023/03/24 09:05:49;;;;;;;1999.90;999.90;;;15.30;99.90;;;;;;4900254;29;20044;-88
2023/03/24 09:08:20;;;;;;;1999.90;999.90;;;15.10;99.90;;;;;;4899385;29;20055;-87
2023/03/24 09:10:45;;;;;;;1999.90;999.90;;;15.00;99.90;;;;;;4915191;29;20081;-89
2023/03/24 09:13:11;;;;;;;1999.90;815.78;;;14.50;99.90;;;;;;4899791;29;20048;-90
2023/03/24 09:15:38;;;;;;;1999.90;999.90;;;14.80;99.90;;;;;;4898930;29;20052;-89
2023/03/24 09:18:04;;;;;;;1999.90;999.90;;;15.40;99.90;;;;;;4914118;29;20052;-90
2023/03/24 09:20:29;;;;;;;1999.90;772.88;;;15.80;99.90;;;;;;4875852;29;20045;-91
2023/03/24 09:22:55;;;;;;;1999.90;999.90;;;16.90;99.90;;;;;;4896877;29;20059;-91
2023/03/24 09:25:21;;;;;;;1999.90;999.90;;;16.40;99.90;;;;;;4909722;29;20095;-91
2023/03/24 09:27:47;;;;;;;1999.90;999.90;;;14.80;99.90;;;;;;4879179;29;20048;-91
2023/03/24 09:30:16;;;;;;;1999.90;999.90;;;16.00;99.90;;;;;;4911839;29;20058;-92
2023/03/24 09:32:45;;;;;;;1999.90;999.90;;;16.40;99.90;;;;;;4913411;29;20060;-90
2023/03/24 09:35:11;;;;;;;1999.90;999.90;;;15.70;99.90;;;;;;4884197;29;20497;-90
2023/03/24 09:37:38;;;;;;;1999.90;999.90;;;15.90;99.90;;;;;;4899435;29;20107;-90
2023/03/24 09:40:04;;;;;;;1999.90;999.90;;;16.20;99.90;;;;;;4914037;29;20397;-92
2023/03/24 09:42:39;;;;;;;1999.90;999.90;;;16.30;99.90;;;;;;4913820;29;20047;-91
2023/03/24 09:45:28;;;;;;;1999.90;999.90;;;15.90;99.90;;;;;;4916272;29;20079;-91
2023/03/24 09:48:06;;;;;;;1999.90;999.90;;;15.00;99.90;;;;;;4909499;29;20107;-89
2023/03/24 09:50:34;;;;;;;1999.90;999.90;;;14.00;99.90;;;;;;4913292;29;20064;-89
2023/03/24 09:53:37;;;;;;;1999.90;999.90;;;13.60;99.90;;;;;;4910680;29;20052;-91
2023/03/24 09:56:25;;;;;;;1999.90;999.90;;;14.10;99.90;;;;;;4855558;29;20159;-90
2023/03/24 09:59:18;;;;;;;1999.90;999.90;;;13.80;99.90;;;;;;4894335;29;20080;-91
2023/03/24 10:01:48;;;;;;;1999.90;999.90;;;15.10;99.90;;;;;;4912140;29;20103;-91
2023/03/24 10:04:23;;;;;;;1999.90;999.90;;;15.30;99.90;;;;;;4899630;29;20425;-90
2023/03/24 10:06:56;;;;;;;1999.90;999.90;;;15.80;99.90;;;;;;4913752;29;20103;-89
2023/03/24 10:09:32;;;;;;;1999.90;999.90;;;15.10;99.90;;;;;;4899730;29;20409;-91
2023/03/24 10:12:20;;;;;;;1999.90;999.90;;;15.60;99.90;;;;;;4914892;29;20055;-90
2023/03/24 10:15:17;;;;;;;1999.90;999.90;;;16.00;99.90;;;;;;4912449;29;20131;-89
2023/03/24 10:18:11;;;;;;;1999.90;999.90;;;16.10;99.90;;;;;;4911431;29;20055;-90
2023/03/24 10:20:45;;;;;;;1999.90;999.90;;;15.80;99.90;;;;;;4912410;29;20113;-88
2023/03/24 10:23:32;;;;;;;1999.90;999.90;;;15.70;99.90;;;;;;4915838;29;20104;-89
2023/03/24 10:26:22;;;;;;;1999.90;999.90;;;15.30;99.90;;;;;;4912513;29;20060;-89
2023/03/24 10:29:27;;;;;;;1999.90;999.90;;;15.70;99.90;;;;;;4902228;29;20134;-89
2023/03/24 10:32:15;;;;;;;1999.90;999.90;;;15.90;99.90;;;;;;4909586;29;20063;-88
2023/03/24 10:34:44;;;;;;;1999.90;999.90;;;15.40;99.90;;;;;;4915439;29;20537;-86
2023/03/24 10:37:11;;;;;;;1999.90;999.90;;;15.60;99.90;;;;;;4912376;29;20075;-88
2023/03/24 10:39:37;;;;;;;1999.90;999.90;;;15.70;99.90;;;;;;4896816;29;20127;-88
2023/03/24 10:42:04;;;;;;;1999.90;999.90;;;15.60;99.90;;;;;;4897258;29;20321;-88
2023/03/24 10:44:30;;;;;;;1999.90;999.90;;;15.40;99.90;;;;;;4913581;29;20075;-88
2023/03/24 10:47:01;;;;;;;1999.90;999.90;;;15.40;99.90;;;;;;4913792;29;20055;-88
2023/03/24 10:49:27;;;;;;;1999.90;999.90;;;15.50;99.90;;;;;;4911859;29;20139;-87
2023/03/24 10:52:01;;;;;;;1999.90;999.90;;;15.30;99.90;;;;;;4899258;29;20135;-86
2023/03/24 10:54:28;;;;;;;1672.75;759.13;;;16.00;99.90;;;;;;4912674;29;20497;-86
2023/03/24 10:56:57;;;;;;;;;;;15.20;99.90;;;;;;4914613;29;20095;-85
2023/03/24 10:59:31;;;;;;;1999.90;999.90;;;15.30;99.90;;;;;;4912899;29;19937;-85
2023/03/24 11:02:09;;;;;;;1999.90;999.90;;;15.00;99.90;;;;;;4897877;29;20048;-85
2023/03/24 11:04:48;;;;;;;1999.90;999.90;;;15.10;99.90;;;;;;4912459;29;20052;-87
2023/03/24 11:07:20;;;;;;;1999.90;999.90;;;15.00;99.90;;;;;;4881907;29;20134;-85
2023/03/24 11:10:14;;;;;;;1999.90;999.90;;;15.20;99.90;;;;;;4912564;29;20102;-85
2023/03/24 11:12:43;;;;;;;1999.90;999.90;;;14.70;99.90;;;;;;4909475;29;20117;-85
2023/03/24 11:15:19;;;;;;;1999.90;999.90;;;14.80;99.90;;;;;;4914232;29;20504;-84
2023/03/24 11:17:51;;;;;;;1999.90;999.90;;;15.30;99.90;;;;;;4909668;29;20055;-84
2023/03/24 11:20:29;;;;;;;1999.90;999.90;;;15.60;99.90;;;;;;4909597;29;20051;-86
2023/03/24 11:23:00;;;;;;;1999.90;999.90;;;15.80;1.00;;;;;;4903355;29;20052;-85
2023/03/24 11:25:28;;;;;;;1999.90;999.90;;;16.40;99.90;;;;;;4897559;29;20073;-84
2023/03/24 11:28:17;;;;;;;1999.90;999.90;;;17.10;45.30;;;;;;4908861;29;20052;-84
2023/03/24 11:30:48;;;;;;;;;;;17.70;1.00;;;;;;4894794;29;20048;-85
2023/03/24 11:33:27;;;;;;;1999.90;999.90;;;18.30;1.00;;;;;;4915149;29;20427;-84
2023/03/24 11:35:53;;;;;;;1999.90;999.90;;;18.40;1.00;;;;;;4897850;29;20147;-85
2023/03/24 11:38:28;;;;;;;1999.90;999.90;;;18.40;1.00;;;;;;4907804;29;20056;-84
2023/03/24 11:41:01;;;;;;;1999.90;999.90;;;18.70;99.90;;;;;;4910878;29;20490;-85
2023/03/24 11:43:27;;;;;;;1999.90;999.90;;;19.10;99.90;;;;;;4913695;29;20148;-84
2023/03/24 11:46:04;;;;;;;1999.90;999.90;;;19.10;99.90;;;;;;4911942;29;20052;-85
2023/03/24 11:48:54;;;;;;;1999.90;999.90;;;19.30;99.90;;;;;;4913416;29;20052;-86
2023/03/24 11:51:33;;;;;;;1999.90;999.90;;;19.60;99.90;;;;;;4902335;29;20414;-85
2023/03/24 11:54:02;;;;;;;1999.90;999.90;;;18.80;99.90;;;;;;4918681;29;20045;-84
2023/03/24 11:56:55;;;;;;;1999.90;999.90;;;18.50;99.90;;;;;;4912333;29;20052;-83
2023/03/24 11:59:44;;;;;;;1999.90;999.90;;;18.40;99.90;;;;;;4915790;29;20048;-84
2023/03/24 12:02:12;;;;;;;;;;;18.40;99.90;;;;;;4912530;29;20545;-84
2023/03/24 12:04:44;;;;;;;1999.90;999.90;;;18.40;99.90;;;;;;4912613;29;19930;-84
2023/03/24 12:07:40;;;;;;;1999.90;999.90;;;18.20;99.90;;;;;;4910972;29;20576;-84
2023/03/24 12:10:38;;;;;;;1999.90;999.90;;;17.90;99.90;;;;;;4908352;29;20141;-84
2023/03/24 12:13:19;;;;;;;1114.65;516.92;;;17.40;99.90;;;;;;4895430;29;20056;-85
2023/03/24 12:15:55;;;;;;;1999.90;999.90;;;17.00;99.90;;;;;;4881071;29;20064;-82
2023/03/24 12:18:24;;;;;;;1999.90;999.90;;;16.80;99.90;;;;;;4915780;29;20507;-84
2023/03/24 12:21:19;;;;;;;1999.90;999.90;;;16.50;99.90;;;;;;4913205;29;20127;-84
2023/03/24 12:23:55;;;;;;;1999.90;999.90;;;16.20;1.00;;;;;;4902373;29;20055;-83